sensor_id;sensor_type;location;lat;lon;timestamp;pressure;altitude;pressure_sealevel;temperature
81177;BMP280;74095;48.270;14.200;2024-02-23T00:00:50;95845.59;;;9.33
81177;BMP280;74095;48.270;14.200;2024-02-23T00:03:16;95836.03;;;9.32
81177;BMP280;74095;48.270;14.200;2024-02-23T00:05:41;95829.63;;;9.20
81177;BMP280;74095;48.270;14.200;2024-02-23T00:08:07;95818.41;;;9.27
81177;BMP280;74095;48.270;14.200;2024-02-23T00:10:34;95831.19;;;9.34
81177;BMP280;74095;48.270;14.200;2024-02-23T00:13:01;95826.06;;;9.29
81177;BMP280;74095;48.270;14.200;2024-02-23T00:15:27;95838.44;;;9.37
81177;BMP280;74095;48.270;14.200;2024-02-23T00:17:52;95821.84;;;9.40
81177;BMP280;74095;48.270;14.200;2024-02-23T00:20:18;95846.56;;;9.52
81177;BMP280;74095;48.270;14.200;2024-02-23T00:22:44;95845.78;;;9.52
81177;BMP280;74095;48.270;14.200;2024-02-23T00:25:10;95863.94;;;9.62
81177;BMP280;74095;48.270;14.200;2024-02-23T00:27:36;95860.16;;;9.63
81177;BMP280;74095;48.270;14.200;2024-02-23T00:30:03;95858.03;;;9.68
81177;BMP280;74095;48.270;14.200;2024-02-23T00:32:29;95874.44;;;9.70
81177;BMP280;74095;48.270;14.200;2024-02-23T00:34:56;95874.44;;;9.70
81177;BMP280;74095;48.270;14.200;2024-02-23T00:37:22;95870.31;;;9.73
81177;BMP280;74095;48.270;14.200;2024-02-23T00:39:48;95880.75;;;9.78
81177;BMP280;74095;48.270;14.200;2024-02-23T00:42:14;95891.97;;;9.71
81177;BMP280;74095;48.270;14.200;2024-02-23T00:44:40;95879.63;;;9.79
81177;BMP280;74095;48.270;14.200;2024-02-23T00:47:06;95880.94;;;9.85
81177;BMP280;74095;48.270;14.200;2024-02-23T00:49:32;95882.97;;;9.64
81177;BMP280;74095;48.270;14.200;2024-02-23T00:51:58;95903.63;;;9.67
81177;BMP280;74095;48.270;14.200;2024-02-23T00:54:24;95929.78;;;9.65
81177;BMP280;74095;48.270;14.200;2024-02-23T00:56:50;95921.03;;;9.64
81177;BMP280;74095;48.270;14.200;2024-02-23T00:59:16;95920.97;;;9.61
81177;BMP280;74095;48.270;14.200;2024-02-23T01:01:42;95939.81;;;9.68
81177;BMP280;74095;48.270;14.200;2024-02-23T01:04:07;95944.03;;;9.69
81177;BMP280;74095;48.270;14.200;2024-02-23T01:06:33;95957.97;;;9.66
81177;BMP280;74095;48.270;14.200;2024-02-23T01:08:59;95974.84;;;9.70
81177;BMP280;74095;48.270;14.200;2024-02-23T01:11:25;95983.84;;;9.65
81177;BMP280;74095;48.270;14.200;2024-02-23T01:13:51;95989.94;;;9.66
81177;BMP280;74095;48.270;14.200;2024-02-23T01:16:17;95995.81;;;9.59
81177;BMP280;74095;48.270;14.200;2024-02-23T01:18:43;95994.25;;;9.58
81177;BMP280;74095;48.270;14.200;2024-02-23T01:21:09;95986.50;;;9.53
81177;BMP280;74095;48.270;14.200;2024-02-23T01:23:34;95990.84;;;9.46
81177;BMP280;74095;48.270;14.200;2024-02-23T01:26:00;96003.47;;;9.37
81177;BMP280;74095;48.270;14.200;2024-02-23T01:28:28;96000.34;;;9.10
81177;BMP280;74095;48.270;14.200;2024-02-23T01:30:53;96019.53;;;9.04
81177;BMP280;74095;48.270;14.200;2024-02-23T01:33:19;96043.34;;;9.00
81177;BMP280;74095;48.270;14.200;2024-02-23T01:35:45;96036.22;;;8.92
81177;BMP280;74095;48.270;14.200;2024-02-23T01:38:11;96045.19;;;8.76
81177;BMP280;74095;48.270;14.200;2024-02-23T01:40:37;96055.09;;;8.66
81177;BMP280;74095;48.270;14.200;2024-02-23T01:43:06;96059.78;;;8.49
81177;BMP280;74095;48.270;14.200;2024-02-23T01:45:32;96142.34;;;8.44
81177;BMP280;74095;48.270;14.200;2024-02-23T01:47:59;96194.28;;;8.41
81177;BMP280;74095;48.270;14.200;2024-02-23T01:50:26;96177.22;;;8.42
81177;BMP280;74095;48.270;14.200;2024-02-23T01:52:53;96167.00;;;8.53
81177;BMP280;74095;48.270;14.200;2024-02-23T01:55:20;96169.88;;;8.68
81177;BMP280;74095;48.270;14.200;2024-02-23T01:57:47;96169.28;;;8.84
81177;BMP280;74095;48.270;14.200;2024-02-23T02:00:18;96163.31;;;8.87
81177;BMP280;74095;48.270;14.200;2024-02-23T02:02:44;96167.13;;;8.98
81177;BMP280;74095;48.270;14.200;2024-02-23T02:05:10;96161.41;;;9.08
81177;BMP280;74095;48.270;14.200;2024-02-23T02:07:37;96172.56;;;9.22
81177;BMP280;74095;48.270;14.200;2024-02-23T02:10:05;96165.47;;;9.26
81177;BMP280;74095;48.270;14.200;2024-02-23T02:12:32;96165.47;;;9.26
81177;BMP280;74095;48.270;14.200;2024-02-23T02:14:58;96160.72;;;9.32
81177;BMP280;74095;48.270;14.200;2024-02-23T02:17:29;96171.59;;;9.39
81177;BMP280;74095;48.270;14.200;2024-02-23T02:19:58;96184.97;;;9.51
81177;BMP280;74095;48.270;14.200;2024-02-23T02:22:24;96168.31;;;9.54
81177;BMP280;74095;48.270;14.200;2024-02-23T02:24:50;96163.56;;;9.59
81177;BMP280;74095;48.270;14.200;2024-02-23T02:27:16;96186.34;;;9.69
81177;BMP280;74095;48.270;14.200;2024-02-23T02:29:42;96188.00;;;9.73
81177;BMP280;74095;48.270;14.200;2024-02-23T02:32:08;96189.56;;;9.75
81177;BMP280;74095;48.270;14.200;2024-02-23T02:34:34;96201.13;;;9.79
81177;BMP280;74095;48.270;14.200;2024-02-23T02:37:00;96197.09;;;9.72
81177;BMP280;74095;48.270;14.200;2024-02-23T02:39:27;96203.47;;;9.80
81177;BMP280;74095;48.270;14.200;2024-02-23T02:41:53;96201.91;;;9.79
81177;BMP280;74095;48.270;14.200;2024-02-23T02:44:18;96206.34;;;9.87
81177;BMP280;74095;48.270;14.200;2024-02-23T02:46:44;96202.00;;;9.83
81177;BMP280;74095;48.270;14.200;2024-02-23T02:49:11;96215.44;;;9.86
81177;BMP280;74095;48.270;14.200;2024-02-23T02:51:37;96217.44;;;9.89
81177;BMP280;74095;48.270;14.200;2024-02-23T02:54:04;96219.66;;;9.99
81177;BMP280;74095;48.270;14.200;2024-02-23T02:56:30;96215.59;;;10.02
81177;BMP280;74095;48.270;14.200;2024-02-23T02:58:56;96225.31;;;9.98
81177;BMP280;74095;48.270;14.200;2024-02-23T03:01:24;96238.78;;;10.01
81177;BMP280;74095;48.270;14.200;2024-02-23T03:03:57;96229.00;;;9.93
81177;BMP280;74095;48.270;14.200;2024-02-23T03:06:27;96256.66;;;10.01
81177;BMP280;74095;48.270;14.200;2024-02-23T03:08:57;96254.22;;;9.96
81177;BMP280;74095;48.270;14.200;2024-02-23T03:11:23;96253.09;;;9.97
81177;BMP280;74095;48.270;14.200;2024-02-23T03:13:51;96248.97;;;9.99
81177;BMP280;74095;48.270;14.200;2024-02-23T03:16:21;96252.34;;;9.96
81177;BMP280;74095;48.270;14.200;2024-02-23T03:18:58;96251.75;;;9.91
81177;BMP280;74095;48.270;14.200;2024-02-23T03:21:27;96255.50;;;9.90
81177;BMP280;74095;48.270;14.200;2024-02-23T03:23:58;96256.97;;;9.87
81177;BMP280;74095;48.270;14.200;2024-02-23T03:26:28;96250.72;;;9.83
81177;BMP280;74095;48.270;14.200;2024-02-23T03:28:56;96246.50;;;9.82
81177;BMP280;74095;48.270;14.200;2024-02-23T03:31:26;96252.28;;;9.84
81177;BMP280;74095;48.270;14.200;2024-02-23T03:33:56;96237.94;;;9.77
81177;BMP280;74095;48.270;14.200;2024-02-23T03:36:26;96233.16;;;9.70
81177;BMP280;74095;48.270;14.200;2024-02-23T03:38:56;96254.25;;;9.75
81177;BMP280;74095;48.270;14.200;2024-02-23T03:41:25;96254.91;;;9.72
81177;BMP280;74095;48.270;14.200;2024-02-23T03:43:55;96269.47;;;9.75
81177;BMP280;74095;48.270;14.200;2024-02-23T03:46:27;96257.78;;;9.67
81177;BMP280;74095;48.270;14.200;2024-02-23T03:48:59;96267.78;;;9.70
81177;BMP280;74095;48.270;14.200;2024-02-23T03:51:31;96278.22;;;9.75
81177;BMP280;74095;48.270;14.200;2024-02-23T03:54:19;96266.69;;;9.71
81177;BMP280;74095;48.270;14.200;2024-02-23T03:57:15;96287.66;;;9.72
81177;BMP280;74095;48.270;14.200;2024-02-23T04:00:11;96288.44;;;9.73
81177;BMP280;74095;48.270;14.200;2024-02-23T04:03:07;96280.44;;;9.73
81177;BMP280;74095;48.270;14.200;2024-02-23T04:06:03;96283.75;;;9.70
81177;BMP280;74095;48.270;14.200;2024-02-23T04:08:57;96292.31;;;9.76
81177;BMP280;74095;48.270;14.200;2024-02-23T04:11:56;96300.66;;;9.74
81177;BMP280;74095;48.270;14.200;2024-02-23T04:14:53;96309.88;;;9.77
81177;BMP280;74095;48.270;14.200;2024-02-23T04:17:47;96312.41;;;9.73
81177;BMP280;74095;48.270;14.200;2024-02-23T04:20:47;96314.41;;;9.76
81177;BMP280;74095;48.270;14.200;2024-02-23T04:23:41;96308.63;;;9.74
81177;BMP280;74095;48.270;14.200;2024-02-23T04:26:36;96315.72;;;9.70
81177;BMP280;74095;48.270;14.200;2024-02-23T04:29:34;96302.94;;;9.63
81177;BMP280;74095;48.270;14.200;2024-02-23T04:32:28;96319.94;;;9.71
81177;BMP280;74095;48.270;14.200;2024-02-23T04:35:20;96315.91;;;9.65
81177;BMP280;74095;48.270;14.200;2024-02-23T04:38:15;96326.13;;;9.63
81177;BMP280;74095;48.270;14.200;2024-02-23T04:41:13;96309.63;;;9.49
81177;BMP280;74095;48.270;14.200;2024-02-23T04:44:10;96312.50;;;9.44
81177;BMP280;74095;48.270;14.200;2024-02-23T04:47:01;96326.13;;;9.42
81177;BMP280;74095;48.270;14.200;2024-02-23T04:49:57;96323.34;;;9.39
81177;BMP280;74095;48.270;14.200;2024-02-23T04:52:53;96319.38;;;9.45
81177;BMP280;74095;48.270;14.200;2024-02-23T04:55:47;96321.31;;;9.36
81177;BMP280;74095;48.270;14.200;2024-02-23T04:58:37;96319.00;;;9.34
81177;BMP280;74095;48.270;14.200;2024-02-23T05:01:34;96318.22;;;9.34
81177;BMP280;74095;48.270;14.200;2024-02-23T05:04:29;96315.09;;;9.32
81177;BMP280;74095;48.270;14.200;2024-02-23T05:07:28;96311.34;;;9.33
81177;BMP280;74095;48.270;14.200;2024-02-23T05:10:27;96306.88;;;9.25
81177;BMP280;74095;48.270;14.200;2024-02-23T05:13:21;96321.97;;;9.33
81177;BMP280;74095;48.270;14.200;2024-02-23T05:16:15;96323.06;;;9.32
81177;BMP280;74095;48.270;14.200;2024-02-23T05:19:13;96315.75;;;9.29
81177;BMP280;74095;48.270;14.200;2024-02-23T05:22:08;96320.03;;;9.42
81177;BMP280;74095;48.270;14.200;2024-02-23T05:25:02;96313.38;;;9.48
81177;BMP280;74095;48.270;14.200;2024-02-23T05:27:55;96322.56;;;9.38
81177;BMP280;74095;48.270;14.200;2024-02-23T05:30:53;96327.56;;;9.40
81177;BMP280;74095;48.270;14.200;2024-02-23T05:33:45;96323.16;;;9.44
81177;BMP280;74095;48.270;14.200;2024-02-23T05:36:47;96322.63;;;9.50
81177;BMP280;74095;48.270;14.200;2024-02-23T05:39:46;96321.97;;;9.53
81177;BMP280;74095;48.270;14.200;2024-02-23T05:42:52;96319.50;;;9.48
81177;BMP280;74095;48.270;14.200;2024-02-23T05:45:46;96324.03;;;9.48
81177;BMP280;74095;48.270;14.200;2024-02-23T05:48:45;96324.91;;;9.40
81177;BMP280;74095;48.270;14.200;2024-02-23T05:51:44;96365.75;;;9.44
81177;BMP280;74095;48.270;14.200;2024-02-23T05:54:54;96374.88;;;9.13
81177;BMP280;74095;48.270;14.200;2024-02-23T05:57:46;96387.66;;;8.82
81177;BMP280;74095;48.270;14.200;2024-02-23T06:00:53;96371.94;;;8.60
81177;BMP280;74095;48.270;14.200;2024-02-23T06:03:51;96375.81;;;8.71
81177;BMP280;74095;48.270;14.200;2024-02-23T06:06:48;96388.03;;;8.72
81177;BMP280;74095;48.270;14.200;2024-02-23T06:09:43;96388.38;;;8.62
81177;BMP280;74095;48.270;14.200;2024-02-23T06:12:41;96380.25;;;8.50
81177;BMP280;74095;48.270;14.200;2024-02-23T06:15:46;96388.91;;;8.47
81177;BMP280;74095;48.270;14.200;2024-02-23T06:18:39;96410.63;;;8.40
81177;BMP280;74095;48.270;14.200;2024-02-23T06:21:40;96408.63;;;8.29
81177;BMP280;74095;48.270;14.200;2024-02-23T06:24:34;96412.97;;;8.33
81177;BMP280;74095;48.270;14.200;2024-02-23T06:27:33;96400.06;;;8.14
81177;BMP280;74095;48.270;14.200;2024-02-23T06:30:26;96408.47;;;8.16
81177;BMP280;74095;48.270;14.200;2024-02-23T06:33:17;96410.19;;;8.12
81177;BMP280;74095;48.270;14.200;2024-02-23T06:36:12;96403.16;;;7.99
81177;BMP280;74095;48.270;14.200;2024-02-23T06:39:09;96419.44;;;8.06
81177;BMP280;74095;48.270;14.200;2024-02-23T06:42:21;96420.66;;;8.00
81177;BMP280;74095;48.270;14.200;2024-02-23T06:48:19;96412.84;;;8.12
81177;BMP280;74095;48.270;14.200;2024-02-23T06:51:15;96411.91;;;8.08
81177;BMP280;74095;48.270;14.200;2024-02-23T06:54:13;96436.94;;;8.07
81177;BMP280;74095;48.270;14.200;2024-02-23T06:57:10;96437.38;;;8.01
81177;BMP280;74095;48.270;14.200;2024-02-23T07:00:10;96446.44;;;8.08
81177;BMP280;74095;48.270;14.200;2024-02-23T07:03:05;96449.56;;;8.10
81177;BMP280;74095;48.270;14.200;2024-02-23T07:05:58;96450.03;;;8.12
81177;BMP280;74095;48.270;14.200;2024-02-23T07:09:09;96458.19;;;8.25
81177;BMP280;74095;48.270;14.200;2024-02-23T07:12:05;96454.91;;;8.28
81177;BMP280;74095;48.270;14.200;2024-02-23T07:15:01;96444.72;;;8.12
81177;BMP280;74095;48.270;14.200;2024-02-23T07:17:54;96451.44;;;8.27
81177;BMP280;74095;48.270;14.200;2024-02-23T07:20:58;96465.34;;;8.33
81177;BMP280;74095;48.270;14.200;2024-02-23T07:23:52;96470.19;;;8.39
81177;BMP280;74095;48.270;14.200;2024-02-23T07:26:55;96461.59;;;8.34
81177;BMP280;74095;48.270;14.200;2024-02-23T07:29:48;96471.75;;;8.40
81177;BMP280;74095;48.270;14.200;2024-02-23T07:32:40;96452.69;;;8.38
81177;BMP280;74095;48.270;14.200;2024-02-23T07:35:38;96449.06;;;8.43
81177;BMP280;74095;48.270;14.200;2024-02-23T07:38:33;96449.38;;;8.50
81177;BMP280;74095;48.270;14.200;2024-02-23T07:41:31;96445.16;;;8.57
81177;BMP280;74095;48.270;14.200;2024-02-23T07:44:24;96452.50;;;8.52
81177;BMP280;74095;48.270;14.200;2024-02-23T07:47:20;96461.56;;;8.51
81177;BMP280;74095;48.270;14.200;2024-02-23T07:50:18;96467.69;;;8.51
81177;BMP280;74095;48.270;14.200;2024-02-23T07:53:12;96465.00;;;8.60
81177;BMP280;74095;48.270;14.200;2024-02-23T07:56:08;96463.94;;;8.52
81177;BMP280;74095;48.270;14.200;2024-02-23T07:59:07;96471.88;;;8.61
81177;BMP280;74095;48.270;14.200;2024-02-23T08:02:03;96464.88;;;8.56
81177;BMP280;74095;48.270;14.200;2024-02-23T08:04:59;96460.19;;;8.53
81177;BMP280;74095;48.270;14.200;2024-02-23T08:07:56;96456.25;;;8.51
81177;BMP280;74095;48.270;14.200;2024-02-23T08:10:54;96470.03;;;8.53
81177;BMP280;74095;48.270;14.200;2024-02-23T08:13:49;96478.63;;;8.58
81177;BMP280;74095;48.270;14.200;2024-02-23T08:16:43;96455.63;;;8.54
81177;BMP280;74095;48.270;14.200;2024-02-23T08:19:38;96459.66;;;8.60
81177;BMP280;74095;48.270;14.200;2024-02-23T08:22:31;96458.13;;;8.67
81177;BMP280;74095;48.270;14.200;2024-02-23T08:25:25;96451.06;;;8.71
81177;BMP280;74095;48.270;14.200;2024-02-23T08:28:20;96438.97;;;8.83
81177;BMP280;74095;48.270;14.200;2024-02-23T08:31:11;96440.38;;;8.97
81177;BMP280;74095;48.270;14.200;2024-02-23T08:34:02;96447.03;;;9.03
81177;BMP280;74095;48.270;14.200;2024-02-23T08:36:54;96448.41;;;9.18
81177;BMP280;74095;48.270;14.200;2024-02-23T08:39:57;96445.94;;;9.13
81177;BMP280;74095;48.270;14.200;2024-02-23T08:42:51;96442.94;;;9.14
81177;BMP280;74095;48.270;14.200;2024-02-23T08:45:47;96460.75;;;9.23
81177;BMP280;74095;48.270;14.200;2024-02-23T08:48:42;96454.13;;;9.29
81177;BMP280;74095;48.270;14.200;2024-02-23T08:51:38;96453.66;;;9.35
81177;BMP280;74095;48.270;14.200;2024-02-23T08:54:33;96461.19;;;9.54
81177;BMP280;74095;48.270;14.200;2024-02-23T08:57:31;96463.81;;;9.62
81177;BMP280;74095;48.270;14.200;2024-02-23T09:00:28;96448.44;;;9.68
81177;BMP280;74095;48.270;14.200;2024-02-23T09:03:23;96444.72;;;9.81
81177;BMP280;74095;48.270;14.200;2024-02-23T09:06:15;96420.50;;;9.95
81177;BMP280;74095;48.270;14.200;2024-02-23T09:09:09;96422.78;;;10.05
81177;BMP280;74095;48.270;14.200;2024-02-23T09:12:01;96431.34;;;10.10
81177;BMP280;74095;48.270;14.200;2024-02-23T09:15:00;96428.19;;;10.08
81177;BMP280;74095;48.270;14.200;2024-02-23T09:17:56;96415.34;;;10.10
81177;BMP280;74095;48.270;14.200;2024-02-23T09:20:52;96420.59;;;10.19
81177;BMP280;74095;48.270;14.200;2024-02-23T09:23:49;96417.78;;;10.15
81177;BMP280;74095;48.270;14.200;2024-02-23T09:26:42;96416.94;;;10.23
81177;BMP280;74095;48.270;14.200;2024-02-23T09:29:40;96400.72;;;10.16
81177;BMP280;74095;48.270;14.200;2024-02-23T09:32:35;96419.00;;;10.06
81177;BMP280;74095;48.270;14.200;2024-02-23T09:35:30;96423.13;;;10.15
81177;BMP280;74095;48.270;14.200;2024-02-23T09:38:25;96412.22;;;10.08
81177;BMP280;74095;48.270;14.200;2024-02-23T09:41:20;96416.84;;;9.99
81177;BMP280;74095;48.270;14.200;2024-02-23T09:44:19;96426.94;;;9.94
81177;BMP280;74095;48.270;14.200;2024-02-23T09:47:22;96425.38;;;9.72
81177;BMP280;74095;48.270;14.200;2024-02-23T09:50:18;96423.16;;;9.74
81177;BMP280;74095;48.270;14.200;2024-02-23T09:53:20;96413.13;;;9.92
81177;BMP280;74095;48.270;14.200;2024-02-23T09:56:21;96426.91;;;10.14
81177;BMP280;74095;48.270;14.200;2024-02-23T09:59:02;96429.75;;;10.30
81177;BMP280;74095;48.270;14.200;2024-02-23T10:01:29;96432.75;;;10.41
81177;BMP280;74095;48.270;14.200;2024-02-23T10:04:00;96436.13;;;10.50
81177;BMP280;74095;48.270;14.200;2024-02-23T10:06:26;96441.53;;;10.41
81177;BMP280;74095;48.270;14.200;2024-02-23T10:08:53;96442.47;;;10.45
81177;BMP280;74095;48.270;14.200;2024-02-23T10:11:24;96441.59;;;10.20
81177;BMP280;74095;48.270;14.200;2024-02-23T10:13:51;96456.28;;;10.27
81177;BMP280;74095;48.270;14.200;2024-02-23T10:16:18;96445.22;;;10.37
81177;BMP280;74095;48.270;14.200;2024-02-23T10:18:47;96445.69;;;10.39
81177;BMP280;74095;48.270;14.200;2024-02-23T10:21:16;96443.81;;;10.18
81177;BMP280;74095;48.270;14.200;2024-02-23T10:23:44;96449.59;;;10.20
81177;BMP280;74095;48.270;14.200;2024-02-23T10:26:11;96433.75;;;10.36
81177;BMP280;74095;48.270;14.200;2024-02-23T10:28:37;96448.25;;;10.47
81177;BMP280;74095;48.270;14.200;2024-02-23T10:31:06;96447.25;;;10.52
81177;BMP280;74095;48.270;14.200;2024-02-23T10:33:32;96442.16;;;10.59
81177;BMP280;74095;48.270;14.200;2024-02-23T10:36:00;96442.91;;;10.14
81177;BMP280;74095;48.270;14.200;2024-02-23T10:38:26;96437.19;;;10.04
81177;BMP280;74095;48.270;14.200;2024-02-23T10:40:55;96427.44;;;9.87
81177;BMP280;74095;48.270;14.200;2024-02-23T10:43:32;96437.97;;;10.04
81177;BMP280;74095;48.270;14.200;2024-02-23T10:45:58;96444.56;;;10.19
81177;BMP280;74095;48.270;14.200;2024-02-23T10:48:28;96443.72;;;10.27
81177;BMP280;74095;48.270;14.200;2024-02-23T10:50:56;96437.31;;;10.28
81177;BMP280;74095;48.270;14.200;2024-02-23T10:53:23;96433.88;;;10.40
81177;BMP280;74095;48.270;14.200;2024-02-23T10:55:52;96431.13;;;10.48
81177;BMP280;74095;48.270;14.200;2024-02-23T10:58:21;96429.44;;;10.44
81177;BMP280;74095;48.270;14.200;2024-02-23T11:00:48;96426.31;;;10.42
81177;BMP280;74095;48.270;14.200;2024-02-23T11:03:14;96433.34;;;10.46
81177;BMP280;74095;48.270;14.200;2024-02-23T11:05:41;96422.56;;;10.43
81177;BMP280;74095;48.270;14.200;2024-02-23T11:08:07;96430.25;;;10.44
81177;BMP280;74095;48.270;14.200;2024-02-23T11:10:43;96435.66;;;10.48
81177;BMP280;74095;48.270;14.200;2024-02-23T11:13:15;96417.88;;;10.40
81177;BMP280;74095;48.270;14.200;2024-02-23T11:15:42;96431.91;;;10.49
81177;BMP280;74095;48.270;14.200;2024-02-23T11:18:32;96428.53;;;10.28
81177;BMP280;74095;48.270;14.200;2024-02-23T11:21:00;96432.06;;;10.32
81177;BMP280;74095;48.270;14.200;2024-02-23T11:23:39;96423.88;;;10.37
81177;BMP280;74095;48.270;14.200;2024-02-23T11:26:05;96416.22;;;10.35
81177;BMP280;74095;48.270;14.200;2024-02-23T11:28:51;96423.91;;;10.49
81177;BMP280;74095;48.270;14.200;2024-02-23T11:31:23;96421.03;;;10.54
81177;BMP280;74095;48.270;14.200;2024-02-23T11:33:50;96430.47;;;10.51
81177;BMP280;74095;48.270;14.200;2024-02-23T11:36:30;96422.91;;;10.53
81177;BMP280;74095;48.270;14.200;2024-02-23T11:38:57;96425.72;;;10.57
81177;BMP280;74095;48.270;14.200;2024-02-23T11:41:24;96423.94;;;10.61
81177;BMP280;74095;48.270;14.200;2024-02-23T11:43:51;96419.41;;;10.61
81177;BMP280;74095;48.270;14.200;2024-02-23T11:46:18;96409.94;;;10.64
81177;BMP280;74095;48.270;14.200;2024-02-23T11:48:44;96409.34;;;10.58
81177;BMP280;74095;48.270;14.200;2024-02-23T11:51:15;96414.13;;;10.53
81177;BMP280;74095;48.270;14.200;2024-02-23T11:53:42;96419.03;;;10.51
81177;BMP280;74095;48.270;14.200;2024-02-23T11:56:08;96408.91;;;10.44
81177;BMP280;74095;48.270;14.200;2024-02-23T11:58:34;96409.34;;;10.46
81177;BMP280;74095;48.270;14.200;2024-02-23T12:01:03;96409.91;;;10.52
81177;BMP280;74095;48.270;14.200;2024-02-23T12:03:29;96413.91;;;10.58
81177;BMP280;74095;48.270;14.200;2024-02-23T12:06:02;96398.47;;;10.51
81177;BMP280;74095;48.270;14.200;2024-02-23T12:08:30;96405.22;;;10.49
81177;BMP280;74095;48.270;14.200;2024-02-23T12:11:04;96412.13;;;10.50
81177;BMP280;74095;48.270;14.200;2024-02-23T12:13:30;96401.69;;;10.45
81177;BMP280;74095;48.270;14.200;2024-02-23T12:15:57;96400.81;;;10.53
81177;BMP280;74095;48.270;14.200;2024-02-23T12:18:23;96387.56;;;10.44
81177;BMP280;74095;48.270;14.200;2024-02-23T12:20:52;96378.66;;;10.40
81177;BMP280;74095;48.270;14.200;2024-02-23T12:23:18;96389.88;;;10.34
81177;BMP280;74095;48.270;14.200;2024-02-23T12:28:20;96388.38;;;10.12
81177;BMP280;74095;48.270;14.200;2024-02-23T12:30:46;96397.50;;;9.90
81177;BMP280;74095;48.270;14.200;2024-02-23T12:33:15;96401.28;;;9.68
81177;BMP280;74095;48.270;14.200;2024-02-23T12:35:41;96399.75;;;9.59
81177;BMP280;74095;48.270;14.200;2024-02-23T12:38:07;96403.28;;;9.51
81177;BMP280;74095;48.270;14.200;2024-02-23T12:40:33;96411.91;;;9.48
81177;BMP280;74095;48.270;14.200;2024-02-23T12:42:58;96414.31;;;9.41
81177;BMP280;74095;48.270;14.200;2024-02-23T12:45:24;96404.28;;;9.38
81177;BMP280;74095;48.270;14.200;2024-02-23T12:47:50;96399.44;;;9.40
81177;BMP280;74095;48.270;14.200;2024-02-23T12:50:16;96391.66;;;9.35
81177;BMP280;74095;48.270;14.200;2024-02-23T12:52:42;96394.44;;;9.38
81177;BMP280;74095;48.270;14.200;2024-02-23T12:55:08;96394.72;;;9.37
81177;BMP280;74095;48.270;14.200;2024-02-23T12:57:34;96396.59;;;9.36
81177;BMP280;74095;48.270;14.200;2024-02-23T13:00:00;96398.50;;;9.36
81177;BMP280;74095;48.270;14.200;2024-02-23T13:02:26;96395.22;;;9.39
81177;BMP280;74095;48.270;14.200;2024-02-23T13:04:52;96396.78;;;9.40
81177;BMP280;74095;48.270;14.200;2024-02-23T13:07:18;96401.19;;;9.36
81177;BMP280;74095;48.270;14.200;2024-02-23T13:09:44;96391.16;;;9.41
81177;BMP280;74095;48.270;14.200;2024-02-23T13:12:10;96392.38;;;9.44
81177;BMP280;74095;48.270;14.200;2024-02-23T13:14:36;96385.44;;;9.51
81177;BMP280;74095;48.270;14.200;2024-02-23T13:17:02;96385.34;;;9.60
81177;BMP280;74095;48.270;14.200;2024-02-23T13:19:29;96399.75;;;9.59
81177;BMP280;74095;48.270;14.200;2024-02-23T13:21:55;96381.25;;;9.62
81177;BMP280;74095;48.270;14.200;2024-02-23T13:24:21;96379.72;;;9.61
81177;BMP280;74095;48.270;14.200;2024-02-23T13:26:47;96385.84;;;9.62
81177;BMP280;74095;48.270;14.200;2024-02-23T13:29:12;96390.94;;;9.67
81177;BMP280;74095;48.270;14.200;2024-02-23T13:31:38;96392.25;;;9.61
81177;BMP280;74095;48.270;14.200;2024-02-23T13:34:05;96392.75;;;9.54
81177;BMP280;74095;48.270;14.200;2024-02-23T13:36:32;96373.25;;;9.42
81177;BMP280;74095;48.270;14.200;2024-02-23T13:38:58;96375.75;;;9.47
81177;BMP280;74095;48.270;14.200;2024-02-23T13:41:24;96367.81;;;9.38
81177;BMP280;74095;48.270;14.200;2024-02-23T13:43:50;96384.28;;;9.32
81177;BMP280;74095;48.270;14.200;2024-02-23T13:46:16;96369.09;;;9.32
81177;BMP280;74095;48.270;14.200;2024-02-23T13:48:42;96378.44;;;9.38
81177;BMP280;74095;48.270;14.200;2024-02-23T13:51:08;96373.19;;;9.30
81177;BMP280;74095;48.270;14.200;2024-02-23T13:53:34;96381.91;;;9.39
81177;BMP280;74095;48.270;14.200;2024-02-23T13:56:03;96375.69;;;9.35
81177;BMP280;74095;48.270;14.200;2024-02-23T13:58:29;96372.81;;;9.40
81177;BMP280;74095;48.270;14.200;2024-02-23T14:00:55;96373.03;;;9.35
81177;BMP280;74095;48.270;14.200;2024-02-23T14:03:21;96386.75;;;9.37
81177;BMP280;74095;48.270;14.200;2024-02-23T14:05:48;96376.88;;;9.37
81177;BMP280;74095;48.270;14.200;2024-02-23T14:08:14;96377.66;;;9.38
81177;BMP280;74095;48.270;14.200;2024-02-23T14:10:40;96371.91;;;9.36
81177;BMP280;74095;48.270;14.200;2024-02-23T14:13:06;96359.41;;;9.28
81177;BMP280;74095;48.270;14.200;2024-02-23T14:15:32;96344.31;;;9.19
81177;BMP280;74095;48.270;14.200;2024-02-23T14:17:58;96354.31;;;9.23
81177;BMP280;74095;48.270;14.200;2024-02-23T14:20:24;96351.31;;;9.24
81177;BMP280;74095;48.270;14.200;2024-02-23T14:22:50;96356.66;;;9.24
81177;BMP280;74095;48.270;14.200;2024-02-23T14:25:16;96366.09;;;9.13
81177;BMP280;74095;48.270;14.200;2024-02-23T14:27:42;96372.53;;;9.03
81177;BMP280;74095;48.270;14.200;2024-02-23T14:30:08;96375.34;;;8.78
81177;BMP280;74095;48.270;14.200;2024-02-23T14:32:34;96366.47;;;8.65
81177;BMP280;74095;48.270;14.200;2024-02-23T14:35:03;96368.25;;;8.44
81177;BMP280;74095;48.270;14.200;2024-02-23T14:37:29;96364.22;;;8.29
81177;BMP280;74095;48.270;14.200;2024-02-23T14:39:55;96365.03;;;8.12
81177;BMP280;74095;48.270;14.200;2024-02-23T14:42:21;96374.09;;;8.11
81177;BMP280;74095;48.270;14.200;2024-02-23T14:44:47;96370.53;;;8.07
81177;BMP280;74095;48.270;14.200;2024-02-23T14:47:16;96375.06;;;8.07
81177;BMP280;74095;48.270;14.200;2024-02-23T14:49:41;96377.88;;;8.02
81177;BMP280;74095;48.270;14.200;2024-02-23T14:52:07;96375.38;;;7.80
81177;BMP280;74095;48.270;14.200;2024-02-23T14:54:33;96384.59;;;7.74
81177;BMP280;74095;48.270;14.200;2024-02-23T14:56:59;96386.16;;;7.75
81177;BMP280;74095;48.270;14.200;2024-02-23T14:59:25;96361.94;;;7.76
81177;BMP280;74095;48.270;14.200;2024-02-23T15:01:51;96364.13;;;7.74
81177;BMP280;74095;48.270;14.200;2024-02-23T15:04:17;96361.31;;;7.62
81177;BMP280;74095;48.270;14.200;2024-02-23T15:06:42;96374.59;;;7.70
81177;BMP280;74095;48.270;14.200;2024-02-23T15:09:08;96358.84;;;7.74
81177;BMP280;74095;48.270;14.200;2024-02-23T15:11:34;96354.75;;;7.68